Hamilton, Canada
Current Conditions -  °F | °C
As of 12:00 AM on Tuesday 23 Dec 2014 (Local Time) from CYHM Reporting Station
Overcast Overcast  
Wind Chill: 24°   Ceiling: 18000
Heat Index: 32°   Visibility: 10mi
Dew Point: 28°   Wind: 10mph
Humidity: 87%   Direction: 70°ENE
Pressure: 29.99"   Gusts: NA
Location:  43.26°N, 79.89°W
Report Text: CYHM 230500Z 07009KT 10SM SCT120 OVC180 00/M02 A2999 RMK AC4AC4 SLP166
Loading
Personal Weather Stations






























Interactive Weather Map New forecast layout! Learn more

10-Day Weather Forecast

Advertisements
Track Severe Weather on mobile